Time;durP1;ratioP1;P1;durP2;ratioP2;P2;SDS_P1;SDS_P2;PMS_P1;PMS_P2;Temp;Humidity;BMP_temperature;BMP_pressure;BME280_temperature;BME280_humidity;BME280_pressure;Samples;Min_cycle;Max_cycle;Signal;HPM_P1;HPM_P2
2021/04/21 00:01:23;;;;;;;2.00;1.55;;;22.90;34.00;;;;;;5051417;28;20393;-58
2021/04/21 00:03:50;;;;;;;2.00;1.60;;;22.90;34.00;;;;;;5051405;28;20459;-58
2021/04/21 00:06:16;;;;;;;1.83;1.50;;;22.80;33.90;;;;;;5051529;28;20451;-58
2021/04/21 00:08:45;;;;;;;2.10;1.60;;;22.90;34.00;;;;;;5051696;28;20390;-59
2021/04/21 00:11:11;;;;;;;2.28;1.80;;;22.80;33.90;;;;;;5051547;28;20473;-58
2021/04/21 00:13:38;;;;;;;2.00;1.60;;;22.80;33.90;;;;;;5051100;28;20719;-58
2021/04/21 00:16:04;;;;;;;1.90;1.70;;;22.80;34.00;;;;;;5051682;28;20424;-58
2021/04/21 00:18:31;;;;;;;2.30;1.70;;;22.80;33.90;;;;;;5051461;28;20458;-59
2021/04/21 00:21:00;;;;;;;1.98;1.60;;;22.80;33.90;;;;;;5051449;28;20396;-58
2021/04/21 00:23:27;;;;;;;1.85;1.48;;;22.80;33.90;;;;;;5051073;28;20471;-58
2021/04/21 00:25:56;;;;;;;2.47;1.60;;;22.80;34.10;;;;;;5050140;28;20886;-58
2021/04/21 00:28:25;;;;;;;2.60;1.40;;;22.80;34.10;;;;;;5051601;28;20389;-58
2021/04/21 00:30:55;;;;;;;2.43;1.50;;;22.80;34.00;;;;;;5051054;28;20464;-58
2021/04/21 00:33:23;;;;;;;1.80;1.50;;;22.80;33.90;;;;;;5051454;28;20476;-58
2021/04/21 00:35:51;;;;;;;2.00;1.60;;;22.90;33.80;;;;;;5051135;28;20376;-58
2021/04/21 00:38:20;;;;;;;2.00;1.50;;;22.90;33.70;;;;;;5051315;28;20416;-58
2021/04/21 00:40:45;;;;;;;2.13;1.65;;;22.80;33.70;;;;;;5051262;28;20382;-58
2021/04/21 00:43:35;;;;;;;2.10;1.80;;;22.90;33.70;;;;;;5051267;28;20436;-58
2021/04/21 00:46:12;;;;;;;2.40;1.60;;;22.90;33.70;;;;;;5051143;28;20441;-58
2021/04/21 00:49:18;;;;;;;2.67;1.88;;;22.90;33.80;;;;;;5052639;28;20388;-59
2021/04/21 00:52:22;;;;;;;2.42;1.60;;;22.90;33.90;;;;;;5012288;28;20400;-58
2021/04/21 00:54:59;;;;;;;2.40;1.50;;;22.90;33.90;;;;;;4965034;28;20404;-58
2021/04/21 00:57:53;;;;;;;3.67;1.60;;;22.90;33.90;;;;;;5047691;28;20746;-58
2021/04/21 01:00:31;;;;;;;2.22;1.58;;;22.90;33.90;;;;;;5055028;28;20381;-58
2021/04/21 01:03:08;;;;;;;2.13;1.60;;;22.80;33.90;;;;;;5055138;28;20784;-58
2021/04/21 01:05:43;;;;;;;2.67;1.55;;;22.80;33.90;;;;;;5054601;28;20413;-58
2021/04/21 01:08:13;;;;;;;2.10;1.50;;;22.80;33.90;;;;;;5054971;28;20400;-58
2021/04/21 01:10:52;;;;;;;2.85;1.70;;;22.80;33.90;;;;;;5054995;28;20400;-58
2021/04/21 01:13:21;;;;;;;2.57;1.60;;;22.80;33.90;;;;;;5054920;28;20378;-58
2021/04/21 01:15:49;;;;;;;2.22;1.67;;;22.80;33.90;;;;;;5054502;28;20803;-58
2021/04/21 01:18:16;;;;;;;2.20;1.60;;;22.80;33.90;;;;;;5054734;28;20900;-58
2021/04/21 01:20:57;;;;;;;2.08;1.73;;;22.80;33.90;;;;;;5054539;28;20408;-58
2021/04/21 01:23:56;;;;;;;2.80;1.53;;;22.80;33.90;;;;;;5054785;28;20454;-58
2021/04/21 01:26:53;;;;;;;2.47;1.67;;;22.80;33.90;;;;;;5053375;28;20948;-58
2021/04/21 01:29:32;;;;;;;1.83;1.40;;;22.80;33.80;;;;;;5054636;28;20401;-58
2021/04/21 01:32:03;;;;;;;1.90;1.55;;;22.70;33.80;;;;;;5054719;28;20409;-57
2021/04/21 01:34:31;;;;;;;2.10;1.50;;;22.70;33.80;;;;;;5054659;28;20432;-58
2021/04/21 01:37:00;;;;;;;2.05;1.50;;;22.70;33.80;;;;;;5054759;28;20439;-58
2021/04/21 01:39:28;;;;;;;2.20;1.80;;;22.70;33.80;;;;;;5054166;28;20869;-58
2021/04/21 01:41:57;;;;;;;1.63;1.50;;;22.70;33.80;;;;;;5054193;28;20425;-58
2021/04/21 01:44:29;;;;;;;1.77;1.50;;;22.70;33.70;;;;;;5054391;28;20419;-58
2021/04/21 01:47:04;;;;;;;1.85;1.65;;;22.70;33.70;;;;;;5054403;28;20405;-58
2021/04/21 01:49:35;;;;;;;2.10;1.50;;;22.70;33.70;;;;;;5054087;28;20796;-58
2021/04/21 01:52:30;;;;;;;1.63;1.38;;;22.70;33.70;;;;;;5054197;28;20382;-58
2021/04/21 01:55:00;;;;;;;1.80;1.50;;;22.70;33.70;;;;;;5054445;28;20404;-58
2021/04/21 01:57:42;;;;;;;2.00;1.50;;;22.70;33.70;;;;;;5052937;28;20385;-58
2021/04/21 02:00:41;;;;;;;2.00;1.55;;;22.70;33.70;;;;;;5053850;28;20382;-58
2021/04/21 02:03:19;;;;;;;2.05;1.50;;;22.60;33.60;;;;;;5054036;28;20845;-58
2021/04/21 02:06:09;;;;;;;1.70;1.40;;;22.70;33.70;;;;;;5053341;28;20443;-57
2021/04/21 02:09:06;;;;;;;2.10;1.60;;;22.70;33.70;;;;;;5053496;28;20867;-57
2021/04/21 02:11:37;;;;;;;2.60;1.63;;;22.70;33.60;;;;;;5053619;28;20382;-57
2021/04/21 02:14:11;;;;;;;1.88;1.45;;;22.70;33.60;;;;;;5052671;28;20385;-57
2021/04/21 02:17:13;;;;;;;2.00;1.50;;;22.70;33.60;;;;;;5053845;28;20378;-57
2021/04/21 02:19:49;;;;;;;2.17;1.42;;;22.70;33.60;;;;;;5053312;28;20440;-57
2021/04/21 02:22:44;;;;;;;1.80;1.30;;;22.60;33.50;;;;;;5053336;28;20874;-57
2021/04/21 02:25:26;;;;;;;1.90;1.33;;;22.60;33.50;;;;;;5053527;28;20508;-57
2021/04/21 02:28:13;;;;;;;1.65;1.33;;;22.60;33.50;;;;;;5053137;28;20382;-57
2021/04/21 02:31:18;;;;;;;1.75;1.45;;;22.60;33.50;;;;;;5053545;28;20388;-57
2021/04/21 02:34:04;;;;;;;1.92;1.40;;;22.60;33.50;;;;;;5053070;28;20381;-57
2021/04/21 02:36:56;;;;;;;1.60;1.40;;;22.60;33.50;;;;;;5053384;28;20928;-57
2021/04/21 02:40:03;;;;;;;1.80;1.40;;;22.60;33.50;;;;;;5053322;28;20393;-57
2021/04/21 02:43:02;;;;;;;1.70;1.40;;;22.60;33.40;;;;;;5053213;28;20720;-57
2021/04/21 02:45:30;;;;;;;1.98;1.60;;;22.60;33.40;;;;;;5053013;28;20424;-57
2021/04/21 02:48:13;;;;;;;1.87;1.50;;;22.60;33.40;;;;;;5052943;28;20385;-57
2021/04/21 02:50:53;;;;;;;1.80;1.57;;;22.50;33.40;;;;;;5051899;28;20471;-57
2021/04/21 02:53:42;;;;;;;1.90;1.70;;;22.50;33.40;;;;;;5053105;28;20480;-57
2021/04/21 02:56:15;;;;;;;1.75;1.40;;;22.60;33.40;;;;;;5053061;28;20388;-57
2021/04/21 02:59:41;;;;;;;2.13;1.65;;;22.50;33.30;;;;;;5053273;28;20393;-57
2021/04/21 03:02:17;;;;;;;1.48;1.20;;;22.50;33.90;;;;;;5011015;28;20404;-57
2021/04/21 03:04:49;;;;;;;1.73;1.40;;;22.50;33.30;;;;;;5011033;28;20428;-58
2021/04/21 03:07:22;;;;;;;1.80;1.30;;;22.50;33.30;;;;;;5035247;28;20417;-57
2021/04/21 03:09:53;;;;;;;1.80;1.30;;;22.50;33.30;;;;;;5052199;28;20401;-57
2021/04/21 03:12:26;;;;;;;1.67;1.40;;;22.50;33.30;;;;;;5052194;28;20385;-57
2021/04/21 03:14:59;;;;;;;1.60;1.30;;;22.50;33.90;;;;;;5052793;28;20925;-60
2021/04/21 03:17:25;;;;;;;1.75;1.30;;;22.50;33.30;;;;;;5052757;28;20396;-57
2021/04/21 03:19:56;;;;;;;1.70;1.27;;;22.50;33.30;;;;;;5052147;28;20406;-57
2021/04/21 03:22:23;;;;;;;2.30;1.55;;;22.50;33.30;;;;;;5052029;28;20391;-57
2021/04/21 03:24:58;;;;;;;1.95;1.60;;;22.50;33.30;;;;;;5051891;28;20413;-57
2021/04/21 03:27:29;;;;;;;1.70;1.40;;;22.50;33.20;;;;;;5052416;28;20393;-57
2021/04/21 03:29:58;;;;;;;1.92;1.40;;;22.50;33.20;;;;;;5051985;28;20401;-57
2021/04/21 03:32:28;;;;;;;1.90;1.58;;;22.50;33.20;;;;;;5051080;28;20912;-57
2021/04/21 03:34:56;;;;;;;1.95;1.33;;;22.40;33.20;;;;;;5051036;28;20739;-57
2021/04/21 03:37:37;;;;;;;1.65;1.15;;;22.40;33.20;;;;;;5052181;28;20386;-58
2021/04/21 03:40:04;;;;;;;1.70;1.30;;;22.40;33.20;;;;;;5050787;28;20890;-57
2021/04/21 03:42:31;;;;;;;1.88;1.55;;;22.40;33.20;;;;;;5052263;28;20382;-57
2021/04/21 03:44:57;;;;;;;1.80;1.50;;;22.40;33.10;;;;;;5052098;28;20413;-57
2021/04/21 03:47:22;;;;;;;1.60;1.33;;;22.40;33.10;;;;;;5051820;28;20412;-57
2021/04/21 03:49:49;;;;;;;2.00;1.50;;;22.40;33.10;;;;;;5051603;28;20392;-57
2021/04/21 03:52:17;;;;;;;1.67;1.40;;;22.40;33.10;;;;;;5051900;28;20381;-57
2021/04/21 03:54:44;;;;;;;1.75;1.40;;;22.40;33.10;;;;;;5051916;28;20754;-57
2021/04/21 03:57:13;;;;;;;1.75;1.40;;;22.40;33.10;;;;;;5051891;28;20384;-57
2021/04/21 03:59:40;;;;;;;1.80;1.40;;;22.40;33.10;;;;;;5051570;28;20415;-57
2021/04/21 04:02:07;;;;;;;1.63;1.30;;;22.40;33.10;;;;;;5051683;28;20869;-57
2021/04/21 04:04:37;;;;;;;3.10;1.40;;;22.40;33.10;;;;;;5051683;28;20420;-57
2021/04/21 04:07:11;;;;;;;1.40;1.15;;;22.40;33.10;;;;;;5051509;28;20416;-57
2021/04/21 04:09:38;;;;;;;1.63;1.40;;;22.30;33.10;;;;;;5051504;28;20495;-57
2021/04/21 04:12:05;;;;;;;1.60;1.30;;;22.30;33.20;;;;;;5051299;28;20758;-57
2021/04/21 04:14:34;;;;;;;1.60;1.33;;;22.20;33.30;;;;;;5051666;28;20436;-57
2021/04/21 04:17:02;;;;;;;1.60;1.37;;;22.20;33.70;;;;;;5051564;28;20417;-57
2021/04/21 04:19:31;;;;;;;1.80;1.30;;;22.20;34.00;;;;;;5051595;28;20442;-57
2021/04/21 04:22:03;;;;;;;2.10;1.52;;;22.30;34.10;;;;;;5050896;28;20442;-58
2021/04/21 04:24:34;;;;;;;2.45;1.30;;;22.30;34.00;;;;;;5050494;28;20443;-58
2021/04/21 04:27:01;;;;;;;2.80;1.90;;;22.30;34.10;;;;;;5051430;28;20532;-58
2021/04/21 04:29:27;;;;;;;1.95;1.50;;;22.40;34.10;;;;;;5051409;28;20472;-59
2021/04/21 04:31:53;;;;;;;2.58;1.30;;;22.30;34.70;;;;;;5042256;28;20794;-59
2021/04/21 04:34:21;;;;;;;2.42;1.38;;;22.40;34.40;;;;;;5031355;28;20783;-59
2021/04/21 04:36:47;;;;;;;2.40;1.20;;;22.40;34.40;;;;;;5031456;28;20474;-59
2021/04/21 04:39:14;;;;;;;1.90;1.40;;;22.40;34.40;;;;;;5030056;28;20407;-58
2021/04/21 04:41:40;;;;;;;2.88;1.35;;;22.40;34.30;;;;;;5029937;28;20490;-58
2021/04/21 04:44:07;;;;;;;1.92;1.30;;;22.40;34.50;;;;;;5031319;28;20414;-58
2021/04/21 04:46:39;;;;;;;2.33;1.60;;;22.40;34.20;;;;;;5031295;28;20423;-58
2021/04/21 04:49:10;;;;;;;1.83;1.40;;;22.40;33.80;;;;;;5031275;28;20374;-58
2021/04/21 04:51:43;;;;;;;2.47;1.30;;;22.40;33.90;;;;;;5031214;28;20403;-59
2021/04/21 04:54:10;;;;;;;1.90;1.40;;;22.40;34.40;;;;;;5031300;28;20401;-59
2021/04/21 04:56:36;;;;;;;1.92;1.40;;;22.40;33.70;;;;;;5031341;28;20395;-59
2021/04/21 04:59:04;;;;;;;3.03;1.48;;;22.40;33.70;;;;;;5031280;28;20438;-59
2021/04/21 05:02:00;;;;;;;2.55;1.40;;;22.40;34.20;;;;;;5031102;28;20391;-59
2021/04/21 05:04:50;;;;;;;3.00;1.52;;;22.40;34.10;;;;;;5030597;28;20423;-59
2021/04/21 05:07:35;;;;;;;2.50;1.70;;;22.40;33.50;;;;;;5031139;28;20402;-59
2021/04/21 05:10:08;;;;;;;2.40;1.52;;;22.40;33.40;;;;;;5030696;28;20403;-59
2021/04/21 05:12:38;;;;;;;2.40;1.48;;;22.30;33.50;;;;;;5031170;28;20438;-59
2021/04/21 05:15:05;;;;;;;2.80;1.52;;;22.30;33.80;;;;;;5030985;28;20387;-60
2021/04/21 05:18:14;;;;;;;5.18;1.65;;;22.20;34.20;;;;;;5031072;28;20394;-59
2021/04/21 05:21:05;;;;;;;3.83;1.40;;;22.10;34.20;;;;;;5031049;28;20379;-59
2021/04/21 05:23:52;;;;;;;4.40;1.63;;;22.20;34.20;;;;;;5030856;28;20475;-58
2021/04/21 05:26:35;;;;;;;3.58;1.50;;;22.20;34.60;;;;;;5030979;28;20406;-59
2021/04/21 05:29:03;;;;;;;3.38;1.55;;;22.10;34.30;;;;;;5031096;28;20387;-59
2021/04/21 05:32:00;;;;;;;2.72;1.42;;;22.10;34.30;;;;;;5031000;28;20384;-59
2021/04/21 05:34:44;;;;;;;2.70;1.60;;;22.10;34.60;;;;;;5031645;28;20441;-58
2021/04/21 05:37:28;;;;;;;4.78;1.67;;;22.10;34.60;;;;;;5033355;28;20799;-58
2021/04/21 05:40:03;;;;;;;4.20;1.70;;;22.10;34.70;;;;;;5034119;28;20474;-59
2021/04/21 05:42:55;;;;;;;2.58;1.35;;;22.10;34.60;;;;;;5034480;28;20387;-59
2021/04/21 05:45:48;;;;;;;3.50;1.50;;;22.20;34.40;;;;;;5034179;28;20418;-61
2021/04/21 05:48:32;;;;;;;3.25;1.60;;;22.20;34.40;;;;;;5033105;28;20415;-59
2021/04/21 05:51:22;;;;;;;3.40;1.50;;;22.20;34.20;;;;;;5033210;28;20383;-59
2021/04/21 05:54:06;;;;;;;2.63;1.52;;;22.20;34.10;;;;;;5033914;28;20445;-58
2021/04/21 05:56:48;;;;;;;2.30;1.60;;;22.20;34.00;;;;;;5034282;28;20387;-60
2021/04/21 05:59:38;;;;;;;2.38;1.30;;;22.20;33.80;;;;;;5026250;28;20407;-59
2021/04/21 06:02:05;;;;;;;2.13;1.60;;;22.20;33.70;;;;;;5048922;28;20889;-59
2021/04/21 06:04:31;;;;;;;2.00;1.50;;;22.20;34.30;;;;;;5050781;28;20427;-59
2021/04/21 06:07:08;;;;;;;2.60;1.50;;;22.20;33.60;;;;;;5053711;28;20386;-59
2021/04/21 06:09:33;;;;;;;2.30;1.60;;;22.30;33.60;;;;;;5048555;28;20925;-59
2021/04/21 06:12:15;;;;;;;2.15;1.42;;;22.30;33.60;;;;;;5053525;28;20389;-59
2021/04/21 06:14:42;;;;;;;2.13;1.50;;;22.30;33.50;;;;;;5054197;28;20382;-59
2021/04/21 06:17:08;;;;;;;2.28;1.60;;;22.30;33.50;;;;;;5053749;28;20866;-59
2021/04/21 06:19:34;;;;;;;2.97;1.70;;;22.30;33.70;;;;;;5053742;28;20399;-59
2021/04/21 06:21:59;;;;;;;2.80;2.03;;;22.30;33.40;;;;;;5053077;28;21109;-59
2021/04/21 06:24:28;;;;;;;4.43;1.93;;;22.40;33.00;;;;;;5053480;28;20788;-59
2021/04/21 06:27:11;;;;;;;3.30;1.95;;;22.40;33.10;;;;;;5053694;28;20515;-59
2021/04/21 06:29:38;;;;;;;3.03;1.90;;;22.40;33.20;;;;;;5053597;28;20468;-59
2021/04/21 06:32:05;;;;;;;2.83;1.90;;;22.40;33.00;;;;;;5053101;28;20433;-59
2021/04/21 06:34:31;;;;;;;3.93;1.70;;;22.40;33.00;;;;;;5053425;28;20468;-59
2021/04/21 06:36:58;;;;;;;2.78;1.73;;;22.50;32.90;;;;;;5053483;28;20393;-59
2021/04/21 06:39:34;;;;;;;2.58;1.90;;;22.50;32.80;;;;;;5053117;28;20423;-59
2021/04/21 06:42:02;;;;;;;2.97;1.70;;;22.50;32.70;;;;;;5052911;28;20400;-59
2021/04/21 06:44:47;;;;;;;2.58;1.60;;;22.50;32.70;;;;;;5053289;28;20817;-59
2021/04/21 06:47:23;;;;;;;3.50;1.73;;;22.50;32.60;;;;;;5052091;28;20410;-59
2021/04/21 06:50:07;;;;;;;2.30;1.77;;;22.60;32.70;;;;;;5052825;28;20381;-59
2021/04/21 06:52:43;;;;;;;2.20;1.58;;;22.60;32.70;;;;;;5053175;28;20393;-60
2021/04/21 06:55:14;;;;;;;1.95;1.55;;;22.60;32.60;;;;;;5053082;28;20516;-60
2021/04/21 06:57:41;;;;;;;3.75;1.67;;;22.60;32.60;;;;;;5053109;28;20442;-59
2021/04/21 07:00:15;;;;;;;2.70;1.67;;;22.70;32.60;;;;;;5052535;28;20377;-59
2021/04/21 07:02:57;;;;;;;7.85;2.50;;;22.70;32.50;;;;;;5052897;28;20401;-59
2021/04/21 07:05:37;;;;;;;8.88;2.47;;;22.70;34.00;;;;;;5053008;28;20591;-59
2021/04/21 07:08:05;;;;;;;4.88;2.20;;;22.70;34.70;;;;;;5052265;28;20390;-59
2021/04/21 07:10:32;;;;;;;5.35;2.03;;;22.80;35.40;;;;;;5052837;28;20893;-59
2021/04/21 07:12:59;;;;;;;5.67;2.03;;;22.80;35.30;;;;;;5051485;28;20961;-59
2021/04/21 07:15:27;;;;;;;4.90;2.00;;;22.80;35.40;;;;;;5052848;28;20420;-59
2021/04/21 07:17:53;;;;;;;4.07;1.80;;;22.80;35.30;;;;;;5052162;28;20385;-59
2021/04/21 07:20:20;;;;;;;4.80;2.17;;;22.90;34.90;;;;;;5052547;28;20397;-59
2021/04/21 07:22:47;;;;;;;6.05;1.95;;;22.90;34.60;;;;;;5052584;28;20759;-59
2021/04/21 07:25:14;;;;;;;3.50;1.70;;;22.90;34.60;;;;;;5052250;28;20418;-59
2021/04/21 07:27:43;;;;;;;5.00;1.70;;;22.90;34.60;;;;;;5052451;28;20417;-59
2021/04/21 07:30:10;;;;;;;4.20;1.90;;;23.00;34.70;;;;;;5052133;28;20489;-59
2021/04/21 07:32:44;;;;;;;2.77;1.70;;;23.00;34.60;;;;;;5051177;28;20400;-59
2021/04/21 07:35:17;;;;;;;3.93;1.90;;;23.00;34.30;;;;;;5052324;28;20503;-59
2021/04/21 07:37:44;;;;;;;3.05;1.70;;;23.00;34.40;;;;;;5052302;28;20373;-59
2021/04/21 07:40:39;;;;;;;3.13;1.80;;;23.10;34.30;;;;;;5051933;28;20397;-59
2021/04/21 07:43:21;;;;;;;3.58;1.80;;;23.10;34.10;;;;;;5047318;28;20484;-59
2021/04/21 07:45:59;;;;;;;3.70;1.67;;;23.10;34.30;;;;;;5051596;28;20445;-59
2021/04/21 07:48:36;;;;;;;4.05;1.67;;;23.10;34.30;;;;;;5052083;28;20451;-59
2021/04/21 07:51:17;;;;;;;5.85;1.90;;;23.10;34.30;;;;;;5052031;28;20389;-59
2021/04/21 07:53:53;;;;;;;3.45;1.88;;;23.10;34.20;;;;;;5051983;28;20480;-59
2021/04/21 07:56:22;;;;;;;2.47;1.63;;;23.20;34.10;;;;;;5050579;28;20409;-59
2021/04/21 07:58:48;;;;;;;4.22;1.60;;;23.20;34.10;;;;;;5051619;28;20409;-60
2021/04/21 08:01:14;;;;;;;3.03;1.70;;;23.20;34.00;;;;;;5051821;28;20404;-59
2021/04/21 08:03:40;;;;;;;3.20;1.50;;;23.20;33.40;;;;;;5045047;28;20490;-59
2021/04/21 08:06:06;;;;;;;2.95;1.65;;;23.20;33.60;;;;;;5051451;28;20445;-59
2021/04/21 08:08:33;;;;;;;3.43;1.70;;;23.20;33.60;;;;;;5051620;28;20385;-59
2021/04/21 08:11:00;;;;;;;4.43;1.70;;;23.20;33.60;;;;;;5051643;28;20862;-61
2021/04/21 08:13:42;;;;;;;5.28;1.88;;;23.20;33.50;;;;;;5051552;28;20408;-60
2021/04/21 08:16:24;;;;;;;3.03;1.83;;;23.20;33.70;;;;;;5051024;28;20389;-59
2021/04/21 08:18:51;;;;;;;3.60;1.77;;;23.20;33.50;;;;;;5051559;28;20382;-63
2021/04/21 08:21:46;;;;;;;4.25;1.80;;;23.30;33.40;;;;;;5051454;28;20381;-64
2021/04/21 08:24:16;;;;;;;5.10;1.70;;;23.30;33.20;;;;;;5050953;28;20758;-62
2021/04/21 08:26:46;;;;;;;4.82;1.90;;;23.20;33.10;;;;;;5050324;28;20472;-63
2021/04/21 08:29:13;;;;;;;4.32;1.80;;;23.20;32.90;;;;;;5049729;28;20780;-64
2021/04/21 08:31:43;;;;;;;3.67;1.77;;;23.20;33.00;;;;;;5050043;28;20386;-64
2021/04/21 08:34:09;;;;;;;3.30;1.80;;;23.30;32.90;;;;;;5049597;28;20870;-63
2021/04/21 08:36:34;;;;;;;3.97;1.85;;;23.30;32.80;;;;;;5049960;28;20405;-59
2021/04/21 08:39:00;;;;;;;3.40;1.90;;;23.30;32.70;;;;;;5050015;28;20401;-59
2021/04/21 08:41:27;;;;;;;4.17;1.90;;;23.30;32.60;;;;;;5049886;28;20796;-63
2021/04/21 08:43:54;;;;;;;3.70;1.80;;;23.30;32.50;;;;;;5049707;28;20539;-65
2021/04/21 08:46:21;;;;;;;3.92;1.90;;;23.30;32.50;;;;;;5049676;28;20500;-65
2021/04/21 08:48:47;;;;;;;3.58;2.10;;;23.40;33.20;;;;;;5050023;28;20393;-62
2021/04/21 08:51:18;;;;;;;3.57;1.80;;;23.40;33.10;;;;;;5049739;28;20615;-60
2021/04/21 08:53:51;;;;;;;3.67;1.95;;;23.40;33.00;;;;;;5049679;28;20385;-64
2021/04/21 08:56:19;;;;;;;3.70;1.80;;;23.40;32.90;;;;;;5049572;28;20394;-59
2021/04/21 08:58:49;;;;;;;3.65;1.90;;;23.40;32.90;;;;;;5049844;28;20389;-60
2021/04/21 09:01:16;;;;;;;2.80;1.80;;;23.40;32.90;;;;;;5049813;28;20727;-61
2021/04/21 09:03:44;;;;;;;3.13;1.80;;;23.40;32.90;;;;;;5049893;28;20738;-63
2021/04/21 09:06:10;;;;;;;3.30;1.80;;;23.40;32.90;;;;;;5049202;28;20412;-59
2021/04/21 09:08:37;;;;;;;3.38;1.88;;;23.40;32.80;;;;;;5049843;28;20480;-59
2021/04/21 09:11:03;;;;;;;4.20;2.00;;;23.40;32.70;;;;;;5053034;28;20397;-59
2021/04/21 09:13:29;;;;;;;4.03;1.77;;;23.40;33.00;;;;;;5053624;28;20780;-59
2021/04/21 09:15:56;;;;;;;4.93;1.90;;;23.40;33.10;;;;;;5053205;28;20396;-59
2021/04/21 09:18:32;;;;;;;4.50;1.98;;;23.40;32.90;;;;;;5053475;28;20393;-59
2021/04/21 09:20:59;;;;;;;4.82;2.15;;;23.50;32.60;;;;;;5053420;28;20780;-59
2021/04/21 09:23:38;;;;;;;8.30;2.37;;;23.50;32.80;;;;;;5053419;28;20471;-59
2021/04/21 09:26:15;;;;;;;7.35;2.47;;;23.50;32.70;;;;;;5052536;28;20432;-60
2021/04/21 09:28:42;;;;;;;6.78;2.58;;;23.50;32.90;;;;;;5053382;28;20464;-59
2021/04/21 09:31:15;;;;;;;8.45;2.30;;;23.50;32.80;;;;;;5053344;28;20393;-59
2021/04/21 09:33:41;;;;;;;8.93;2.45;;;23.50;32.90;;;;;;5053577;28;20435;-58
2021/04/21 09:36:07;;;;;;;7.28;2.53;;;23.50;32.50;;;;;;5052744;28;20455;-64
2021/04/21 09:38:33;;;;;;;6.00;2.40;;;23.50;32.40;;;;;;5053978;28;20914;-59
2021/04/21 09:41:14;;;;;;;7.93;2.60;;;23.50;32.30;;;;;;5053226;28;20412;-59
2021/04/21 09:43:41;;;;;;;7.00;2.45;;;23.60;32.20;;;;;;5052763;28;20402;-64
2021/04/21 09:46:20;;;;;;;9.65;2.83;;;23.50;32.50;;;;;;5052333;28;20428;-61
2021/04/21 09:48:47;;;;;;;9.43;3.10;;;23.50;32.60;;;;;;5052991;28;20388;-58
2021/04/21 09:51:15;;;;;;;13.23;3.35;;;23.60;32.50;;;;;;5053035;28;20874;-65
2021/04/21 09:53:49;;;;;;;9.93;3.00;;;23.60;32.20;;;;;;5052929;28;20874;-65
2021/04/21 09:56:23;;;;;;;13.00;3.30;;;23.90;35.90;;;;;;5052076;28;20408;-65
2021/04/21 09:58:56;;;;;;;12.13;3.00;;;24.10;34.10;;;;;;5052954;28;20745;-68
2021/04/21 10:01:33;;;;;;;8.98;2.95;;;24.20;33.70;;;;;;5052660;28;20389;-67
2021/04/21 10:04:08;;;;;;;10.53;3.40;;;24.20;33.80;;;;;;5052253;28;20528;-68
2021/04/21 10:06:34;;;;;;;11.82;2.95;;;24.30;33.60;;;;;;5052818;28;20412;-67
2021/04/21 10:08:59;;;;;;;13.07;2.95;;;24.30;33.70;;;;;;5052563;28;20389;-68
2021/04/21 10:11:25;;;;;;;6.93;2.83;;;24.40;33.70;;;;;;5052723;28;20483;-69
2021/04/21 10:13:52;;;;;;;6.55;2.50;;;24.40;33.20;;;;;;5052673;28;20390;-68
2021/04/21 10:16:19;;;;;;;9.40;2.90;;;24.50;33.40;;;;;;5052459;28;20918;-68
2021/04/21 10:18:45;;;;;;;8.45;2.95;;;24.50;33.30;;;;;;5052578;28;20416;-59
2021/04/21 10:21:13;;;;;;;5.68;2.65;;;24.50;33.00;;;;;;5052204;28;20417;-68
2021/04/21 10:23:39;;;;;;;7.32;2.70;;;24.60;32.80;;;;;;5052466;28;20374;-65
2021/04/21 10:26:07;;;;;;;5.60;2.40;;;24.60;33.00;;;;;;5051407;28;20526;-58
2021/04/21 10:28:34;;;;;;;5.05;2.17;;;24.60;32.80;;;;;;5052262;28;20874;-58
2021/04/21 10:31:03;;;;;;;6.10;2.20;;;24.70;32.90;;;;;;5052211;28;20935;-59
2021/04/21 10:33:29;;;;;;;6.68;2.60;;;24.70;32.70;;;;;;5052149;28;20440;-58
2021/04/21 10:35:55;;;;;;;8.70;2.30;;;24.70;32.60;;;;;;5051242;28;20481;-58
2021/04/21 10:38:24;;;;;;;6.47;2.58;;;24.80;32.60;;;;;;5050525;28;20443;-58
2021/04/21 10:40:49;;;;;;;4.30;2.25;;;24.80;32.50;;;;;;5051937;28;20425;-58
2021/04/21 10:43:38;;;;;;;6.28;2.60;;;24.90;32.60;;;;;;5052328;28;20436;-58
2021/04/21 10:46:04;;;;;;;5.32;2.20;;;24.90;32.40;;;;;;5051291;28;20428;-58
2021/04/21 10:48:46;;;;;;;5.47;2.30;;;25.00;32.50;;;;;;5051960;28;20393;-58
2021/04/21 10:51:38;;;;;;;8.07;2.30;;;25.10;32.50;;;;;;5051876;28;20404;-58
2021/04/21 10:54:10;;;;;;;4.22;2.30;;;25.10;32.30;;;;;;5051205;28;20896;-58
2021/04/21 10:56:37;;;;;;;4.30;2.40;;;25.10;32.40;;;;;;5051111;28;20393;-58
2021/04/21 10:59:05;;;;;;;7.63;2.42;;;25.10;32.30;;;;;;5051527;28;20405;-67
2021/04/21 11:01:35;;;;;;;7.37;2.37;;;25.20;32.40;;;;;;5051702;28;20396;-58
2021/04/21 11:04:03;;;;;;;5.55;2.13;;;25.20;32.20;;;;;;5050283;28;20389;-58
2021/04/21 11:06:41;;;;;;;5.78;2.50;;;25.30;32.10;;;;;;5051596;28;20477;-58
2021/04/21 11:09:08;;;;;;;8.63;2.42;;;25.30;31.90;;;;;;5051444;28;20392;-58
2021/04/21 11:11:40;;;;;;;7.63;2.50;;;25.30;32.10;;;;;;5051308;28;20393;-58
2021/04/21 11:14:08;;;;;;;7.93;2.60;;;25.30;32.20;;;;;;5050359;28;20382;-58
2021/04/21 11:16:41;;;;;;;8.55;2.60;;;25.30;32.10;;;;;;5051151;28;20394;-58
2021/04/21 11:19:19;;;;;;;7.90;2.40;;;25.30;32.10;;;;;;5051478;28;20476;-58
2021/04/21 11:21:51;;;;;;;9.40;2.55;;;25.40;32.10;;;;;;5051292;28;20381;-58
2021/04/21 11:24:20;;;;;;;6.28;2.80;;;25.40;31.90;;;;;;5050477;28;20417;-58
2021/04/21 11:26:48;;;;;;;10.20;3.30;;;25.40;32.00;;;;;;5051162;28;20482;-58
2021/04/21 11:29:21;;;;;;;7.70;2.93;;;25.40;31.50;;;;;;5051134;28;20432;-58
2021/04/21 11:31:50;;;;;;;7.20;2.78;;;25.40;31.70;;;;;;5050755;28;20881;-58
2021/04/21 11:34:30;;;;;;;6.90;2.45;;;25.40;31.70;;;;;;5048853;28;20397;-58
2021/04/21 11:36:59;;;;;;;6.15;2.40;;;25.50;31.90;;;;;;5051001;28;20443;-59
2021/04/21 11:39:43;;;;;;;6.85;2.30;;;25.50;32.00;;;;;;5050841;28;20466;-59
2021/04/21 11:42:33;;;;;;;15.20;2.95;;;25.40;31.90;;;;;;5050565;28;20378;-58
2021/04/21 11:45:17;;;;;;;12.00;3.08;;;25.40;31.90;;;;;;5050771;28;20471;-59
2021/04/21 11:47:54;;;;;;;13.15;3.20;;;25.50;31.80;;;;;;5050828;28;20404;-59
2021/04/21 11:50:32;;;;;;;11.90;3.38;;;25.50;31.50;;;;;;5050515;28;20727;-59
2021/04/21 11:53:07;;;;;;;12.85;2.83;;;25.50;31.40;;;;;;5050742;28;20429;-59
2021/04/21 11:55:41;;;;;;;13.63;2.80;;;25.50;31.40;;;;;;5050659;28;20393;-58
2021/04/21 11:58:11;;;;;;;9.40;2.90;;;25.50;31.60;;;;;;5050085;28;20393;-59
2021/04/21 12:00:41;;;;;;;12.07;2.97;;;25.50;31.70;;;;;;5050849;28;20440;-59
2021/04/21 12:03:32;;;;;;;12.63;3.30;;;25.50;31.50;;;;;;5050523;28;20385;-59
2021/04/21 12:06:06;;;;;;;8.25;2.90;;;25.50;31.40;;;;;;5050364;28;20416;-60
2021/04/21 12:08:37;;;;;;;9.35;2.90;;;25.50;31.40;;;;;;5050773;28;20389;-59
2021/04/21 12:11:04;;;;;;;11.20;3.15;;;25.50;31.30;;;;;;5050238;28;20893;-58
2021/04/21 12:13:39;;;;;;;10.40;3.00;;;25.50;31.50;;;;;;5050257;28;20450;-58
2021/04/21 12:16:10;;;;;;;15.90;3.90;;;25.40;31.80;;;;;;5049782;28;20386;-58
2021/04/21 12:18:40;;;;;;;16.95;3.50;;;25.40;32.00;;;;;;5050353;28;20385;-59
2021/04/21 12:21:30;;;;;;;17.58;3.22;;;25.40;32.10;;;;;;5048893;28;20727;-58
2021/04/21 12:24:10;;;;;;;17.67;3.47;;;25.40;32.80;;;;;;5050177;28;20895;-59
2021/04/21 12:26:46;;;;;;;10.95;2.85;;;25.60;32.60;;;;;;5050232;28;20431;-58
2021/04/21 12:29:16;;;;;;;11.77;3.17;;;25.60;32.80;;;;;;5049440;28;20377;-58
2021/04/21 12:31:43;;;;;;;10.20;2.70;;;25.80;33.00;;;;;;5049705;28;20888;-58
2021/04/21 12:34:24;;;;;;;11.80;3.03;;;25.80;33.10;;;;;;5048087;28;20393;-58
2021/04/21 12:36:50;;;;;;;13.75;3.20;;;25.90;33.50;;;;;;5048292;28;20401;-58
2021/04/21 12:39:17;;;;;;;10.95;3.20;;;26.00;33.70;;;;;;5049634;28;20439;-58
2021/04/21 12:41:45;;;;;;;10.83;2.53;;;26.00;33.50;;;;;;5049771;28;20753;-58
2021/04/21 12:44:20;;;;;;;8.85;2.58;;;26.10;33.20;;;;;;5048422;28;20416;-58
2021/04/21 12:46:49;;;;;;;10.45;2.60;;;26.20;33.40;;;;;;5049651;28;20428;-59
2021/04/21 12:49:15;;;;;;;8.73;2.80;;;26.20;32.80;;;;;;5049724;28;20393;-60
2021/04/21 12:51:47;;;;;;;8.43;2.70;;;26.10;32.40;;;;;;5049945;28;20485;-59
2021/04/21 12:54:36;;;;;;;7.35;2.30;;;26.10;32.30;;;;;;5049263;28;20389;-58
2021/04/21 12:57:05;;;;;;;9.13;2.63;;;26.20;32.50;;;;;;5049703;28;20397;-59
2021/04/21 12:59:41;;;;;;;7.80;2.45;;;26.20;32.50;;;;;;5048625;28;20382;-58
2021/04/21 13:02:08;;;;;;;6.47;2.17;;;26.30;32.30;;;;;;5049483;28;20765;-59
2021/04/21 13:04:41;;;;;;;7.68;2.35;;;26.30;32.30;;;;;;5049560;28;20410;-58
2021/04/21 13:07:12;;;;;;;8.68;2.20;;;26.30;32.10;;;;;;5049757;28;20413;-59
2021/04/21 13:09:38;;;;;;;6.20;1.98;;;26.30;32.10;;;;;;5049634;28;20382;-59
2021/04/21 13:12:11;;;;;;;5.78;2.30;;;26.40;32.10;;;;;;5048120;28;20416;-59
2021/04/21 13:14:42;;;;;;;7.00;2.40;;;26.40;32.30;;;;;;5049780;28;20381;-59
2021/04/21 13:17:08;;;;;;;5.88;2.20;;;26.50;32.20;;;;;;5049546;28;20389;-59
2021/04/21 13:19:36;;;;;;;4.25;2.00;;;26.40;31.80;;;;;;5049688;28;20381;-59